createdAt,value
2022-12-19T03:23:47.773Z,33.28
2022-12-19T03:30:13.649Z,32.15
2022-12-19T03:32:58.737Z,34.30
2022-12-19T03:35:36.931Z,35.13
2022-12-19T03:38:29.794Z,26.20
2022-12-19T03:41:07.216Z,30.83
2022-12-19T03:43:57.803Z,32.53
2022-12-19T03:47:18.586Z,38.58
2022-12-19T03:49:52.485Z,28.92
2022-12-19T03:52:39.073Z,28.73
2022-12-19T03:55:30.710Z,22.50
2022-12-19T03:58:10.311Z,21.65
2022-12-19T04:00:50.158Z,22.40
2022-12-19T04:03:42.435Z,27.02
2022-12-19T04:06:54.320Z,28.45
2022-12-19T04:09:30.371Z,24.40
2022-12-19T04:12:24.733Z,33.13
2022-12-19T04:14:59.319Z,29.17
2022-12-19T04:21:13.880Z,28.30
2022-12-19T04:23:56.852Z,31.25
2022-12-19T04:26:30.542Z,25.58
2022-12-19T04:29:30.320Z,27.85
2022-12-19T04:32:22.944Z,23.70
2022-12-19T04:35:02.835Z,29.05
2022-12-19T04:37:37.722Z,23.77
2022-12-19T04:40:22.957Z,23.40
2022-12-19T04:42:55.439Z,23.05
2022-12-19T04:45:39.423Z,27.10
2022-12-19T04:48:13.180Z,26.63
2022-12-19T04:50:45.611Z,33.47
2022-12-19T04:53:19.897Z,27.58
2022-12-19T04:55:50.344Z,21.33
2022-12-19T04:58:22.040Z,27.05
2022-12-19T05:00:54.417Z,24.98
2022-12-19T05:03:26.026Z,25.60
2022-12-19T05:06:33.810Z,26.13
2022-12-19T05:09:39.299Z,28.65
2022-12-19T05:12:11.756Z,31.00
2022-12-19T05:14:43.901Z,30.20
2022-12-19T05:17:14.850Z,27.58
2022-12-19T05:19:46.687Z,30.17
2022-12-19T05:22:17.459Z,27.08
2022-12-19T05:24:50.190Z,28.40
2022-12-19T05:27:19.922Z,30.33
2022-12-19T05:29:49.460Z,28.08
2022-12-19T05:32:19.169Z,28.38
2022-12-19T05:34:50.215Z,29.65
2022-12-19T05:37:19.842Z,34.17
2022-12-19T05:39:53.032Z,26.25
2022-12-19T05:42:50.972Z,26.67
2022-12-19T05:45:20.492Z,29.98
2022-12-19T05:47:49.887Z,25.77
2022-12-19T05:50:20.051Z,24.40
2022-12-19T05:52:58.479Z,21.65
2022-12-19T05:55:29.338Z,24.00
2022-12-19T05:57:58.460Z,26.23
2022-12-19T06:00:27.897Z,29.15
2022-12-19T06:02:57.438Z,31.50
2022-12-19T06:05:27.266Z,24.88
2022-12-19T06:07:57.171Z,25.92
2022-12-19T06:10:27.878Z,31.15
2022-12-19T06:12:57.927Z,22.88
2022-12-19T06:15:26.342Z,27.20
2022-12-19T06:18:09.978Z,27.48
2022-12-19T06:20:41.149Z,23.77
2022-12-19T06:23:10.415Z,25.10
2022-12-19T06:25:39.849Z,25.48
2022-12-19T06:28:10.034Z,21.05
2022-12-19T06:30:38.691Z,28.70
2022-12-19T06:33:08.751Z,23.65
2022-12-19T06:35:38.131Z,25.38
2022-12-19T06:38:07.127Z,22.08
2022-12-19T06:41:18.013Z,22.60
2022-12-19T06:43:53.600Z,27.73
2022-12-19T06:46:22.086Z,23.00
2022-12-19T06:48:52.835Z,24.48
2022-12-19T06:51:21.353Z,21.17
2022-12-19T06:53:50.144Z,20.55
2022-12-19T06:56:20.743Z,21.98
2022-12-19T06:58:51.361Z,25.48
2022-12-19T07:01:20.764Z,20.95
2022-12-19T07:03:50.532Z,19.10
2022-12-19T07:06:18.666Z,19.17
2022-12-19T07:08:47.540Z,22.52
2022-12-19T07:11:15.846Z,21.75
2022-12-19T07:13:45.283Z,18.95
2022-12-19T07:16:15.689Z,16.48
2022-12-19T07:18:45.443Z,21.33
2022-12-19T07:21:38.390Z,20.17
2022-12-19T07:24:09.848Z,23.60
2022-12-19T07:26:38.665Z,21.00
2022-12-19T07:29:08.262Z,21.60
2022-12-19T07:31:40.302Z,20.42
2022-12-19T07:34:10.448Z,27.63
2022-12-19T07:36:40.963Z,22.70
2022-12-19T07:39:12.024Z,19.58
2022-12-19T07:41:41.926Z,23.58
2022-12-19T07:44:13.967Z,20.90
2022-12-19T07:46:46.586Z,23.80
2022-12-19T07:49:22.327Z,19.60
2022-12-19T07:51:54.434Z,22.08
2022-12-19T07:54:25.207Z,21.08
2022-12-19T07:56:56.352Z,25.65
2022-12-19T07:59:32.234Z,25.63
2022-12-19T08:02:28.931Z,21.60
2022-12-19T08:05:08.648Z,20.05
2022-12-19T08:07:40.101Z,21.30
2022-12-19T08:10:13.378Z,21.70
2022-12-19T08:12:44.734Z,19.70
2022-12-19T08:15:15.405Z,17.48
2022-12-19T08:17:48.227Z,22.40
2022-12-19T08:20:22.673Z,20.15
2022-12-19T08:22:53.195Z,19.45
2022-12-19T08:25:22.701Z,24.00
2022-12-19T08:27:54.049Z,19.15
2022-12-19T08:30:26.085Z,20.83
2022-12-19T08:33:02.924Z,18.02
2022-12-19T08:35:34.435Z,23.08
2022-12-19T08:38:04.346Z,17.92
2022-12-19T08:40:36.027Z,19.27
2022-12-19T08:43:09.293Z,20.17
2022-12-19T08:45:44.411Z,20.67
2022-12-19T08:48:21.418Z,17.20
2022-12-19T08:50:57.807Z,18.30
2022-12-19T08:53:30.565Z,15.40
2022-12-19T08:56:05.670Z,16.30
2022-12-19T09:02:07.146Z,21.40
2022-12-19T09:06:02.643Z,17.77
2022-12-19T09:07:38.620Z,16.65
2022-12-19T09:10:10.590Z,17.20
2022-12-19T09:12:43.975Z,15.95
2022-12-19T09:15:35.098Z,19.25
2022-12-19T09:18:13.601Z,17.15
2022-12-19T09:20:51.278Z,18.30
2022-12-19T09:23:41.693Z,20.88
2022-12-19T09:26:21.570Z,17.25
2022-12-19T09:29:35.715Z,16.02
2022-12-19T09:32:21.367Z,13.70
2022-12-19T09:38:34.298Z,16.67
2022-12-19T09:53:22.660Z,13.63
2022-12-19T10:00:02.169Z,19.50
2022-12-19T10:07:10.917Z,14.93
2022-12-19T10:15:20.183Z,16.27
2022-12-19T10:18:22.587Z,16.10
2022-12-19T11:12:37.936Z,16.23
2022-12-19T11:17:16.876Z,18.05
2022-12-19T11:28:12.310Z,13.70
2022-12-19T11:29:32.463Z,18.45
2022-12-19T11:30:43.668Z,14.45
2022-12-19T11:32:38.398Z,15.57
2022-12-19T11:34:54.783Z,16.52
2022-12-19T11:37:45.710Z,17.45
2022-12-19T11:40:49.449Z,13.38
2022-12-19T11:43:47.074Z,17.15
2022-12-19T11:46:40.319Z,15.63
2022-12-19T11:49:26.130Z,17.85
2022-12-19T11:52:04.197Z,20.17
2022-12-19T11:54:49.498Z,19.48
2022-12-19T11:57:44.296Z,16.38
2022-12-19T12:00:40.402Z,16.98
2022-12-19T12:04:00.384Z,16.65
2022-12-19T12:06:51.671Z,15.18
2022-12-19T12:14:57.139Z,18.92
2022-12-19T12:17:29.518Z,17.35
2022-12-19T12:26:33.480Z,16.55
2022-12-19T12:31:04.572Z,17.52
2022-12-19T12:31:22.013Z,21.52
2022-12-19T12:32:06.162Z,15.05
2022-12-19T12:35:46.393Z,16.58
2022-12-19T12:40:31.309Z,17.27
2022-12-19T12:43:13.625Z,16.45
2022-12-19T12:45:45.260Z,16.77
2022-12-19T12:48:24.959Z,16.50
2022-12-19T12:51:02.613Z,18.63
2022-12-19T12:53:36.442Z,12.95
2022-12-19T12:56:10.110Z,14.75
2022-12-19T12:59:07.654Z,19.10
2022-12-19T13:01:40.490Z,17.10
2022-12-19T13:04:28.230Z,14.52
2022-12-19T13:07:29.004Z,16.13
2022-12-19T13:10:18.238Z,17.52
2022-12-19T13:13:09.282Z,16.20
2022-12-19T13:15:44.293Z,14.82
2022-12-19T13:18:39.102Z,16.15
2022-12-19T13:21:10.628Z,15.15
2022-12-19T13:24:16.252Z,15.73
2022-12-19T13:26:52.655Z,14.45
2022-12-19T13:29:43.938Z,13.63
2022-12-19T13:32:18.109Z,15.73
2022-12-19T13:35:27.837Z,15.07
2022-12-19T13:39:49.478Z,13.02
2022-12-19T13:40:58.219Z,12.30
2022-12-19T13:43:47.566Z,16.13
2022-12-19T13:46:34.397Z,13.93
2022-12-19T13:49:12.375Z,12.38
2022-12-19T13:51:49.349Z,14.90
2022-12-19T13:54:32.038Z,13.27
2022-12-19T13:57:09.672Z,15.10
2022-12-19T13:59:59.237Z,12.48
2022-12-19T14:02:34.833Z,14.25
2022-12-19T14:05:30.631Z,13.38
2022-12-19T14:08:21.218Z,13.70
2022-12-19T14:11:35.085Z,10.80
2022-12-19T14:14:15.179Z,11.93
2022-12-19T14:16:48.210Z,12.95
2022-12-19T14:19:22.435Z,10.45
2022-12-19T14:22:11.068Z,12.85
2022-12-19T14:24:42.960Z,19.55
2022-12-19T14:28:19.052Z,8.55
2022-12-19T14:30:28.283Z,14.30
2022-12-19T14:33:45.853Z,10.98
2022-12-19T14:36:11.419Z,11.40
2022-12-19T14:39:24.940Z,9.90
2022-12-19T14:42:02.136Z,11.18
2022-12-19T14:51:51.773Z,11.27
2022-12-19T14:52:51.160Z,11.23
2022-12-19T14:54:30.494Z,12.77
2022-12-19T14:54:40.346Z,12.52
2022-12-19T14:59:34.558Z,14.00
2022-12-19T15:02:28.004Z,13.95
2022-12-19T15:05:08.316Z,12.23
2022-12-19T15:07:44.695Z,11.20
2022-12-19T15:11:01.041Z,11.13
2022-12-19T15:14:47.515Z,11.70
2022-12-19T15:16:31.647Z,16.85
2022-12-19T15:19:05.071Z,18.48
2022-12-19T15:21:39.668Z,13.25
2022-12-19T15:24:12.214Z,14.25
2022-12-19T15:26:50.436Z,13.88
2022-12-19T15:29:24.615Z,11.27
2022-12-19T15:31:56.050Z,12.95
2022-12-19T15:34:48.192Z,10.18
2022-12-19T15:37:21.712Z,13.13
2022-12-19T15:39:52.263Z,13.52
2022-12-19T15:42:26.032Z,12.68
2022-12-19T15:45:19.636Z,12.75
2022-12-19T15:47:52.558Z,13.57
2022-12-19T15:50:24.459Z,14.32
2022-12-19T15:52:58.365Z,10.95
2022-12-19T15:55:32.454Z,14.95
2022-12-19T15:58:08.388Z,12.55
2022-12-19T16:00:39.805Z,12.73
2022-12-19T16:03:23.669Z,14.18
2022-12-19T16:12:34.273Z,13.60
2022-12-19T16:15:05.311Z,11.40
2022-12-19T16:17:35.577Z,15.38
2022-12-19T16:20:18.772Z,11.50
2022-12-19T16:22:51.634Z,15.57
2022-12-19T16:30:32.818Z,9.93
2022-12-19T16:33:26.487Z,11.80
2022-12-19T16:36:05.107Z,14.40
2022-12-19T16:38:37.284Z,11.60
2022-12-19T16:41:12.673Z,11.57
2022-12-19T16:43:46.032Z,10.75
2022-12-19T16:46:21.434Z,12.35
2022-12-19T16:48:55.255Z,12.30
2022-12-19T16:51:36.206Z,18.17
2022-12-19T16:54:07.600Z,15.73
2022-12-19T16:59:49.389Z,16.08
2022-12-19T17:02:49.899Z,14.23
2022-12-19T17:05:24.235Z,11.98
2022-12-19T17:07:57.705Z,10.40
2022-12-19T17:10:34.048Z,11.13
2022-12-19T17:13:06.043Z,14.00
2022-12-19T17:15:39.824Z,13.55
2022-12-19T17:18:16.431Z,15.63
2022-12-19T17:21:03.432Z,13.50
2022-12-19T17:23:36.559Z,12.02
2022-12-19T17:26:10.380Z,13.93
2022-12-19T17:28:48.652Z,12.63
2022-12-19T17:31:26.015Z,13.30
2022-12-19T17:33:59.625Z,13.30
2022-12-19T17:36:37.414Z,15.40
2022-12-19T17:39:21.839Z,15.15
2022-12-19T17:41:54.375Z,13.93
2022-12-19T17:44:26.278Z,13.60
2022-12-19T17:46:57.057Z,14.63
2022-12-19T17:49:33.626Z,16.30
2022-12-19T17:52:06.026Z,14.15
2022-12-19T17:55:26.694Z,16.75
2022-12-19T17:58:32.081Z,15.27
2022-12-19T18:01:22.188Z,14.13
2022-12-19T18:03:56.935Z,12.50
2022-12-19T18:06:29.093Z,14.00
2022-12-19T18:09:04.226Z,13.00
2022-12-19T18:11:42.055Z,15.95
2022-12-19T18:14:13.901Z,13.55
2022-12-19T18:16:45.423Z,11.40
2022-12-19T18:19:20.923Z,17.10
2022-12-19T18:21:52.783Z,14.55
2022-12-19T18:24:24.817Z,13.57
2022-12-19T18:26:58.073Z,19.05
2022-12-19T18:29:28.722Z,16.40
2022-12-19T18:31:59.627Z,14.45
2022-12-19T18:34:34.035Z,14.75
2022-12-19T18:37:06.148Z,16.17
2022-12-19T18:39:40.318Z,18.17
2022-12-19T18:42:24.933Z,15.05
2022-12-19T18:44:57.966Z,15.27
2022-12-19T18:47:29.078Z,13.40
2022-12-19T18:50:00.676Z,15.90
2022-12-19T18:52:33.335Z,14.60
2022-12-19T18:55:05.440Z,15.20
2022-12-19T18:57:38.574Z,19.55
2022-12-19T19:04:22.969Z,19.13
2022-12-19T19:06:56.228Z,15.68
2022-12-19T19:09:32.752Z,14.52
2022-12-19T19:12:15.413Z,13.75
2022-12-19T19:14:49.491Z,14.30
2022-12-19T19:17:30.466Z,14.70
2022-12-19T19:20:01.884Z,15.80
2022-12-19T19:22:33.598Z,14.70
2022-12-19T19:25:04.624Z,15.15
2022-12-19T19:27:36.706Z,15.73
2022-12-19T19:30:41.310Z,13.63
2022-12-19T19:33:16.102Z,12.57
2022-12-19T19:35:49.101Z,17.70
2022-12-19T19:38:22.196Z,11.20
2022-12-19T19:40:53.173Z,14.60
2022-12-19T19:43:25.692Z,15.10
2022-12-19T19:45:57.924Z,14.15
2022-12-19T19:48:28.698Z,13.32
2022-12-19T19:51:00.619Z,15.60
2022-12-19T19:53:32.109Z,12.38
2022-12-19T19:56:04.524Z,12.00
2022-12-19T19:58:35.147Z,13.65
2022-12-19T20:01:26.622Z,15.38
2022-12-19T20:04:03.330Z,13.07
2022-12-19T20:06:36.415Z,12.63
2022-12-19T20:09:08.924Z,14.40
2022-12-19T20:11:40.096Z,12.43
2022-12-19T20:14:11.446Z,15.93
2022-12-19T20:16:44.751Z,15.85
2022-12-19T20:19:16.151Z,12.80
2022-12-19T20:21:55.781Z,12.10
2022-12-19T20:24:26.670Z,17.08
2022-12-19T20:27:10.675Z,15.68
2022-12-19T20:29:39.764Z,14.98
2022-12-19T20:32:25.463Z,13.75
2022-12-19T20:34:54.102Z,15.32
2022-12-19T20:37:22.409Z,14.30
2022-12-19T20:39:50.626Z,12.57
2022-12-19T20:42:19.415Z,13.90
2022-12-19T20:44:51.241Z,17.23
2022-12-19T20:47:19.481Z,15.95
2022-12-19T20:49:48.891Z,12.27
2022-12-19T20:52:17.044Z,11.82
2022-12-19T20:54:45.340Z,15.77
2022-12-19T20:57:18.049Z,15.57
2022-12-19T20:59:46.265Z,11.43
2022-12-19T21:02:15.017Z,12.60
2022-12-19T21:04:43.437Z,14.10
2022-12-19T21:07:12.979Z,15.57
2022-12-19T21:09:44.899Z,15.98
2022-12-19T21:12:13.282Z,12.98
2022-12-19T21:14:41.451Z,11.55
2022-12-19T21:17:09.723Z,11.82
2022-12-19T21:19:37.839Z,17.00
2022-12-19T21:22:06.273Z,12.32
2022-12-19T21:24:41.362Z,12.90
2022-12-19T21:27:09.437Z,14.75
2022-12-19T21:29:37.581Z,13.75
2022-12-19T21:32:05.771Z,14.30
2022-12-19T21:34:33.828Z,12.30
2022-12-19T21:37:01.826Z,13.07
2022-12-19T21:39:29.823Z,10.10
2022-12-19T21:41:59.406Z,13.00
2022-12-19T21:44:27.634Z,13.57
2022-12-19T21:46:55.932Z,12.60
2022-12-19T21:49:24.069Z,12.35
2022-12-19T21:51:52.230Z,12.73
2022-12-19T21:54:48.959Z,10.90
2022-12-19T21:57:18.390Z,16.63
2022-12-19T21:59:46.587Z,12.75
2022-12-19T22:02:14.867Z,11.77
2022-12-19T22:04:43.537Z,9.70
2022-12-19T22:07:11.944Z,13.07
2022-12-19T22:09:40.109Z,14.20
2022-12-19T22:12:08.590Z,16.30
2022-12-19T22:14:38.306Z,11.55
2022-12-19T22:17:06.685Z,11.25
2022-12-19T22:19:34.963Z,14.05
2022-12-19T22:22:03.219Z,11.38
2022-12-19T22:24:31.532Z,11.52
2022-12-19T22:27:18.252Z,12.50
2022-12-19T22:29:47.912Z,12.85
2022-12-19T22:32:15.988Z,11.65
2022-12-19T22:34:44.345Z,10.98
2022-12-19T22:37:12.381Z,12.23
2022-12-19T22:39:40.661Z,12.65
2022-12-19T22:42:08.794Z,13.27
2022-12-19T22:44:37.043Z,11.02
2022-12-19T22:47:24.416Z,12.13
2022-12-19T22:49:53.096Z,10.25
2022-12-19T22:52:21.221Z,11.73
2022-12-19T22:54:49.422Z,10.60
2022-12-19T22:57:17.555Z,8.88
2022-12-19T22:59:45.701Z,9.85
2022-12-19T23:02:14.048Z,10.10
2022-12-19T23:04:56.194Z,11.20
2022-12-19T23:07:24.307Z,10.38
2022-12-19T23:09:52.541Z,12.77
2022-12-19T23:12:20.785Z,13.40
2022-12-19T23:14:48.892Z,9.98
2022-12-19T23:17:17.032Z,12.65
2022-12-19T23:19:45.275Z,13.98
2022-12-19T23:22:14.735Z,12.35
2022-12-19T23:24:44.882Z,11.18
2022-12-19T23:27:13.330Z,10.02
2022-12-19T23:29:41.757Z,10.32
2022-12-19T23:32:10.103Z,8.75
2022-12-19T23:34:38.556Z,9.43
2022-12-19T23:37:12.685Z,12.68
2022-12-19T23:39:42.623Z,11.07
2022-12-19T23:42:10.767Z,10.88
2022-12-19T23:44:39.172Z,10.95
2022-12-19T23:47:07.436Z,10.13
2022-12-19T23:49:35.597Z,9.98
2022-12-19T23:52:03.751Z,10.10
2022-12-19T23:54:32.339Z,9.88
2022-12-19T23:57:01.857Z,9.45
2022-12-19T23:59:30.969Z,11.02
